Bethel, New York
Current Conditions -  °F | °C
As of 8:15 PM on Monday 26 Jan 2015 (Local Time) from KMSV Reporting Station
Few Clouds Few Clouds  
Wind Chill: -14°   Ceiling: Unl
Heat Index: -7°   Visibility: 9mi
Dew Point: -9°   Wind: 14mph
Humidity: 86%   Direction: 80°E
Pressure: 29.81"   Gusts: 30mph
Location:  41.68°N, 74.86°W
Report Text: KMSV 270115Z AUTO 08012G26KT 9SM FEW013 FEW022 M07/M09 A2981 RMK AO1
Loading
Personal Weather Stations






























Interactive Weather Map New forecast layout! Learn more

10-Day Weather Forecast

Advertisements
Track Severe Weather on mobile